sensor_id;sensor_type;location;lat;lon;timestamp;P1;durP1;ratioP1;P2;durP2;ratioP2
69047;SDS011;56119;50.118;8.642;2022-11-20T00:01:44;25.03;;;16.30;;
69047;SDS011;56119;50.118;8.642;2022-11-20T00:04:10;27.45;;;17.40;;
69047;SDS011;56119;50.118;8.642;2022-11-20T00:06:37;27.97;;;17.87;;
69047;SDS011;56119;50.118;8.642;2022-11-20T00:09:03;26.93;;;17.07;;
69047;SDS011;56119;50.118;8.642;2022-11-20T00:11:30;30.87;;;19.17;;
69047;SDS011;56119;50.118;8.642;2022-11-20T00:13:57;27.67;;;18.00;;
69047;SDS011;56119;50.118;8.642;2022-11-20T00:16:24;29.80;;;17.73;;
69047;SDS011;56119;50.118;8.642;2022-11-20T00:18:50;29.37;;;18.43;;
69047;SDS011;56119;50.118;8.642;2022-11-20T00:21:23;27.40;;;17.17;;
69047;SDS011;56119;50.118;8.642;2022-11-20T00:23:50;26.70;;;16.73;;
69047;SDS011;56119;50.118;8.642;2022-11-20T00:26:17;29.30;;;19.00;;
69047;SDS011;56119;50.118;8.642;2022-11-20T00:28:48;28.37;;;17.57;;
69047;SDS011;56119;50.118;8.642;2022-11-20T00:31:14;29.80;;;17.87;;
69047;SDS011;56119;50.118;8.642;2022-11-20T00:33:41;27.58;;;16.58;;
69047;SDS011;56119;50.118;8.642;2022-11-20T00:36:08;27.37;;;17.37;;
69047;SDS011;56119;50.118;8.642;2022-11-20T00:38:35;26.30;;;16.53;;
69047;SDS011;56119;50.118;8.642;2022-11-20T00:41:02;27.38;;;18.33;;
69047;SDS011;56119;50.118;8.642;2022-11-20T00:43:28;89.83;;;60.70;;
69047;SDS011;56119;50.118;8.642;2022-11-20T00:45:58;37.97;;;25.03;;
69047;SDS011;56119;50.118;8.642;2022-11-20T00:48:24;31.47;;;21.27;;
69047;SDS011;56119;50.118;8.642;2022-11-20T00:50:50;39.07;;;25.37;;
69047;SDS011;56119;50.118;8.642;2022-11-20T00:53:16;119.60;;;86.20;;
69047;SDS011;56119;50.118;8.642;2022-11-20T00:55:41;178.50;;;128.93;;
69047;SDS011;56119;50.118;8.642;2022-11-20T00:58:07;119.20;;;89.30;;
69047;SDS011;56119;50.118;8.642;2022-11-20T01:00:34;123.20;;;92.00;;
69047;SDS011;56119;50.118;8.642;2022-11-20T01:03:00;31.20;;;21.57;;
69047;SDS011;56119;50.118;8.642;2022-11-20T01:05:25;40.93;;;28.03;;
69047;SDS011;56119;50.118;8.642;2022-11-20T01:07:51;32.63;;;20.50;;
69047;SDS011;56119;50.118;8.642;2022-11-20T01:10:17;30.80;;;19.65;;
69047;SDS011;56119;50.118;8.642;2022-11-20T01:12:43;53.07;;;36.57;;
69047;SDS011;56119;50.118;8.642;2022-11-20T01:15:29;34.95;;;19.85;;
69047;SDS011;56119;50.118;8.642;2022-11-20T01:17:55;32.03;;;20.23;;
69047;SDS011;56119;50.118;8.642;2022-11-20T01:20:21;29.93;;;20.00;;
69047;SDS011;56119;50.118;8.642;2022-11-20T01:22:47;62.07;;;42.13;;
69047;SDS011;56119;50.118;8.642;2022-11-20T01:25:13;40.97;;;26.90;;
69047;SDS011;56119;50.118;8.642;2022-11-20T01:27:39;115.90;;;88.53;;
69047;SDS011;56119;50.118;8.642;2022-11-20T01:30:05;43.00;;;28.70;;
69047;SDS011;56119;50.118;8.642;2022-11-20T01:32:32;41.67;;;27.77;;
69047;SDS011;56119;50.118;8.642;2022-11-20T01:34:58;41.47;;;29.13;;
69047;SDS011;56119;50.118;8.642;2022-11-20T01:37:23;33.70;;;23.03;;
69047;SDS011;56119;50.118;8.642;2022-11-20T01:39:49;32.47;;;20.63;;
69047;SDS011;56119;50.118;8.642;2022-11-20T01:42:15;37.92;;;25.88;;
69047;SDS011;56119;50.118;8.642;2022-11-20T01:45:00;30.47;;;20.20;;
69047;SDS011;56119;50.118;8.642;2022-11-20T01:47:30;31.90;;;20.57;;
69047;SDS011;56119;50.118;8.642;2022-11-20T01:50:03;28.45;;;18.63;;
69047;SDS011;56119;50.118;8.642;2022-11-20T01:52:34;32.93;;;19.57;;
69047;SDS011;56119;50.118;8.642;2022-11-20T01:55:04;31.87;;;19.67;;
69047;SDS011;56119;50.118;8.642;2022-11-20T01:57:32;31.42;;;20.38;;
69047;SDS011;56119;50.118;8.642;2022-11-20T02:00:04;31.13;;;20.33;;
69047;SDS011;56119;50.118;8.642;2022-11-20T02:02:31;29.97;;;19.57;;
69047;SDS011;56119;50.118;8.642;2022-11-20T02:04:58;36.50;;;21.27;;
69047;SDS011;56119;50.118;8.642;2022-11-20T02:07:26;28.02;;;18.38;;
69047;SDS011;56119;50.118;8.642;2022-11-20T02:09:53;32.80;;;21.63;;
69047;SDS011;56119;50.118;8.642;2022-11-20T02:12:19;32.30;;;20.30;;
69047;SDS011;56119;50.118;8.642;2022-11-20T02:15:04;32.13;;;20.30;;
69047;SDS011;56119;50.118;8.642;2022-11-20T02:17:30;32.83;;;21.53;;
69047;SDS011;56119;50.118;8.642;2022-11-20T02:19:56;34.80;;;21.40;;
69047;SDS011;56119;50.118;8.642;2022-11-20T02:22:33;30.83;;;20.17;;
69047;SDS011;56119;50.118;8.642;2022-11-20T02:25:01;30.10;;;19.23;;
69047;SDS011;56119;50.118;8.642;2022-11-20T02:27:28;30.10;;;18.47;;
69047;SDS011;56119;50.118;8.642;2022-11-20T02:29:59;30.03;;;19.53;;
69047;SDS011;56119;50.118;8.642;2022-11-20T02:32:27;33.90;;;19.20;;
69047;SDS011;56119;50.118;8.642;2022-11-20T02:34:53;27.57;;;18.70;;
69047;SDS011;56119;50.118;8.642;2022-11-20T02:37:19;31.10;;;20.10;;
69047;SDS011;56119;50.118;8.642;2022-11-20T02:39:51;28.13;;;19.13;;
69047;SDS011;56119;50.118;8.642;2022-11-20T02:42:17;29.70;;;19.53;;
69047;SDS011;56119;50.118;8.642;2022-11-20T02:44:43;30.73;;;19.23;;
69047;SDS011;56119;50.118;8.642;2022-11-20T02:47:09;30.90;;;19.40;;
69047;SDS011;56119;50.118;8.642;2022-11-20T02:49:35;33.17;;;20.37;;
69047;SDS011;56119;50.118;8.642;2022-11-20T02:52:01;32.10;;;20.23;;
69047;SDS011;56119;50.118;8.642;2022-11-20T02:54:27;33.73;;;19.70;;
69047;SDS011;56119;50.118;8.642;2022-11-20T02:56:53;30.10;;;18.97;;
69047;SDS011;56119;50.118;8.642;2022-11-20T02:59:19;32.27;;;20.30;;
69047;SDS011;56119;50.118;8.642;2022-11-20T03:01:45;33.40;;;20.93;;
69047;SDS011;56119;50.118;8.642;2022-11-20T03:04:11;30.67;;;18.57;;
69047;SDS011;56119;50.118;8.642;2022-11-20T03:06:37;29.42;;;18.65;;
69047;SDS011;56119;50.118;8.642;2022-11-20T03:09:03;31.93;;;19.90;;
69047;SDS011;56119;50.118;8.642;2022-11-20T03:11:29;32.00;;;19.70;;
69047;SDS011;56119;50.118;8.642;2022-11-20T03:13:55;32.45;;;19.92;;
69047;SDS011;56119;50.118;8.642;2022-11-20T03:16:21;32.78;;;19.08;;
69047;SDS011;56119;50.118;8.642;2022-11-20T03:18:48;31.65;;;18.85;;
69047;SDS011;56119;50.118;8.642;2022-11-20T03:21:14;29.63;;;19.10;;
69047;SDS011;56119;50.118;8.642;2022-11-20T03:23:41;29.33;;;18.37;;
69047;SDS011;56119;50.118;8.642;2022-11-20T03:26:15;30.53;;;19.23;;
69047;SDS011;56119;50.118;8.642;2022-11-20T03:28:42;30.67;;;19.33;;
69047;SDS011;56119;50.118;8.642;2022-11-20T03:31:12;29.30;;;18.70;;
69047;SDS011;56119;50.118;8.642;2022-11-20T03:33:39;30.20;;;18.53;;
69047;SDS011;56119;50.118;8.642;2022-11-20T03:36:06;35.07;;;20.00;;
69047;SDS011;56119;50.118;8.642;2022-11-20T03:38:32;31.67;;;18.90;;
69047;SDS011;56119;50.118;8.642;2022-11-20T03:40:59;34.37;;;19.77;;
69047;SDS011;56119;50.118;8.642;2022-11-20T03:43:25;32.30;;;19.93;;
69047;SDS011;56119;50.118;8.642;2022-11-20T03:45:52;34.77;;;21.33;;
69047;SDS011;56119;50.118;8.642;2022-11-20T03:48:18;31.77;;;19.53;;
69047;SDS011;56119;50.118;8.642;2022-11-20T03:50:43;34.53;;;20.73;;
69047;SDS011;56119;50.118;8.642;2022-11-20T03:53:12;34.37;;;20.37;;
69047;SDS011;56119;50.118;8.642;2022-11-20T03:55:38;32.50;;;19.20;;
69047;SDS011;56119;50.118;8.642;2022-11-20T03:58:04;33.50;;;19.73;;
69047;SDS011;56119;50.118;8.642;2022-11-20T04:00:30;32.43;;;20.30;;
69047;SDS011;56119;50.118;8.642;2022-11-20T04:03:00;35.10;;;22.13;;
69047;SDS011;56119;50.118;8.642;2022-11-20T04:05:26;36.83;;;21.00;;
69047;SDS011;56119;50.118;8.642;2022-11-20T04:07:52;36.33;;;20.83;;
69047;SDS011;56119;50.118;8.642;2022-11-20T04:10:18;35.47;;;21.03;;
69047;SDS011;56119;50.118;8.642;2022-11-20T04:12:44;33.80;;;21.53;;
69047;SDS011;56119;50.118;8.642;2022-11-20T04:15:10;36.10;;;22.07;;
69047;SDS011;56119;50.118;8.642;2022-11-20T04:17:36;37.50;;;22.03;;
69047;SDS011;56119;50.118;8.642;2022-11-20T04:20:02;35.07;;;21.33;;
69047;SDS011;56119;50.118;8.642;2022-11-20T04:22:28;34.10;;;20.00;;
69047;SDS011;56119;50.118;8.642;2022-11-20T04:24:55;35.50;;;20.63;;
69047;SDS011;56119;50.118;8.642;2022-11-20T04:27:21;32.87;;;20.43;;
69047;SDS011;56119;50.118;8.642;2022-11-20T04:29:47;35.90;;;20.53;;
69047;SDS011;56119;50.118;8.642;2022-11-20T04:32:13;33.70;;;20.23;;
69047;SDS011;56119;50.118;8.642;2022-11-20T04:34:39;31.23;;;20.27;;
69047;SDS011;56119;50.118;8.642;2022-11-20T04:37:05;31.80;;;20.00;;
69047;SDS011;56119;50.118;8.642;2022-11-20T04:39:31;31.10;;;19.90;;
69047;SDS011;56119;50.118;8.642;2022-11-20T04:41:57;33.17;;;20.03;;
69047;SDS011;56119;50.118;8.642;2022-11-20T04:44:42;29.97;;;18.77;;
69047;SDS011;56119;50.118;8.642;2022-11-20T04:47:07;34.97;;;20.03;;
69047;SDS011;56119;50.118;8.642;2022-11-20T04:49:33;31.97;;;19.83;;
69047;SDS011;56119;50.118;8.642;2022-11-20T04:51:59;31.80;;;19.87;;
69047;SDS011;56119;50.118;8.642;2022-11-20T04:54:25;32.33;;;19.83;;
69047;SDS011;56119;50.118;8.642;2022-11-20T04:56:51;34.13;;;20.53;;
69047;SDS011;56119;50.118;8.642;2022-11-20T04:59:17;37.43;;;21.70;;
69047;SDS011;56119;50.118;8.642;2022-11-20T05:01:43;32.17;;;20.07;;
69047;SDS011;56119;50.118;8.642;2022-11-20T05:04:09;34.70;;;20.13;;
69047;SDS011;56119;50.118;8.642;2022-11-20T05:06:35;31.43;;;18.90;;
69047;SDS011;56119;50.118;8.642;2022-11-20T05:09:01;34.10;;;20.87;;
69047;SDS011;56119;50.118;8.642;2022-11-20T05:11:27;33.87;;;20.63;;
69047;SDS011;56119;50.118;8.642;2022-11-20T05:13:57;33.50;;;20.10;;
69047;SDS011;56119;50.118;8.642;2022-11-20T05:16:24;34.73;;;20.70;;
69047;SDS011;56119;50.118;8.642;2022-11-20T05:18:50;33.97;;;19.17;;
69047;SDS011;56119;50.118;8.642;2022-11-20T05:21:17;29.83;;;18.80;;
69047;SDS011;56119;50.118;8.642;2022-11-20T05:23:43;35.53;;;20.88;;
69047;SDS011;56119;50.118;8.642;2022-11-20T05:26:16;30.30;;;19.87;;
69047;SDS011;56119;50.118;8.642;2022-11-20T05:28:43;29.60;;;18.60;;
69047;SDS011;56119;50.118;8.642;2022-11-20T05:31:10;34.10;;;20.00;;
69047;SDS011;56119;50.118;8.642;2022-11-20T05:33:36;28.02;;;18.58;;
69047;SDS011;56119;50.118;8.642;2022-11-20T05:36:03;31.05;;;18.92;;
69047;SDS011;56119;50.118;8.642;2022-11-20T05:38:29;30.45;;;19.55;;
69047;SDS011;56119;50.118;8.642;2022-11-20T05:40:55;31.58;;;18.70;;
69047;SDS011;56119;50.118;8.642;2022-11-20T05:43:21;30.33;;;18.50;;
69047;SDS011;56119;50.118;8.642;2022-11-20T05:45:53;30.20;;;18.40;;
69047;SDS011;56119;50.118;8.642;2022-11-20T05:48:20;32.72;;;19.98;;
69047;SDS011;56119;50.118;8.642;2022-11-20T05:50:46;29.30;;;18.07;;
69047;SDS011;56119;50.118;8.642;2022-11-20T05:53:12;30.85;;;19.15;;
69047;SDS011;56119;50.118;8.642;2022-11-20T05:55:38;28.05;;;17.25;;
69047;SDS011;56119;50.118;8.642;2022-11-20T05:58:04;26.97;;;17.20;;
69047;SDS011;56119;50.118;8.642;2022-11-20T06:00:30;28.73;;;17.87;;
69047;SDS011;56119;50.118;8.642;2022-11-20T06:02:56;28.00;;;18.27;;
69047;SDS011;56119;50.118;8.642;2022-11-20T06:05:22;31.35;;;19.05;;
69047;SDS011;56119;50.118;8.642;2022-11-20T06:07:48;28.97;;;17.63;;
69047;SDS011;56119;50.118;8.642;2022-11-20T06:10:14;29.47;;;18.23;;
69047;SDS011;56119;50.118;8.642;2022-11-20T06:12:40;31.10;;;18.57;;
69047;SDS011;56119;50.118;8.642;2022-11-20T06:15:06;33.47;;;19.38;;
69047;SDS011;56119;50.118;8.642;2022-11-20T06:17:32;31.80;;;19.00;;
69047;SDS011;56119;50.118;8.642;2022-11-20T06:19:58;35.53;;;19.98;;
69047;SDS011;56119;50.118;8.642;2022-11-20T06:22:24;32.50;;;18.65;;
69047;SDS011;56119;50.118;8.642;2022-11-20T06:24:50;33.70;;;19.17;;
69047;SDS011;56119;50.118;8.642;2022-11-20T06:27:16;33.15;;;19.33;;
69047;SDS011;56119;50.118;8.642;2022-11-20T06:29:42;36.53;;;20.15;;
69047;SDS011;56119;50.118;8.642;2022-11-20T06:32:08;36.03;;;19.40;;
69047;SDS011;56119;50.118;8.642;2022-11-20T06:34:34;39.78;;;20.67;;
69047;SDS011;56119;50.118;8.642;2022-11-20T06:37:00;34.92;;;20.10;;
69047;SDS011;56119;50.118;8.642;2022-11-20T06:39:25;37.97;;;20.55;;
69047;SDS011;56119;50.118;8.642;2022-11-20T06:41:51;43.00;;;22.95;;
69047;SDS011;56119;50.118;8.642;2022-11-20T06:44:17;36.72;;;20.35;;
69047;SDS011;56119;50.118;8.642;2022-11-20T06:46:43;37.05;;;20.75;;
69047;SDS011;56119;50.118;8.642;2022-11-20T06:49:09;41.17;;;21.63;;
69047;SDS011;56119;50.118;8.642;2022-11-20T06:51:35;39.33;;;22.17;;
69047;SDS011;56119;50.118;8.642;2022-11-20T06:54:01;44.63;;;22.83;;
69047;SDS011;56119;50.118;8.642;2022-11-20T06:56:27;48.08;;;23.77;;
69047;SDS011;56119;50.118;8.642;2022-11-20T06:58:53;53.47;;;24.40;;
69047;SDS011;56119;50.118;8.642;2022-11-20T07:01:19;44.50;;;22.65;;
69047;SDS011;56119;50.118;8.642;2022-11-20T07:03:48;47.63;;;23.73;;
69047;SDS011;56119;50.118;8.642;2022-11-20T07:06:14;50.00;;;23.30;;
69047;SDS011;56119;50.118;8.642;2022-11-20T07:08:40;44.50;;;22.35;;
69047;SDS011;56119;50.118;8.642;2022-11-20T07:11:06;48.63;;;23.90;;
69047;SDS011;56119;50.118;8.642;2022-11-20T07:13:33;46.60;;;23.13;;
69047;SDS011;56119;50.118;8.642;2022-11-20T07:15:59;47.55;;;23.92;;
69047;SDS011;56119;50.118;8.642;2022-11-20T07:18:26;45.63;;;23.00;;
69047;SDS011;56119;50.118;8.642;2022-11-20T07:20:52;46.57;;;23.13;;
69047;SDS011;56119;50.118;8.642;2022-11-20T07:23:18;45.23;;;23.43;;
69047;SDS011;56119;50.118;8.642;2022-11-20T07:25:44;46.50;;;21.80;;
69047;SDS011;56119;50.118;8.642;2022-11-20T07:28:10;43.03;;;21.80;;
69047;SDS011;56119;50.118;8.642;2022-11-20T07:30:36;47.57;;;22.63;;
69047;SDS011;56119;50.118;8.642;2022-11-20T07:33:02;45.60;;;22.13;;
69047;SDS011;56119;50.118;8.642;2022-11-20T07:35:28;46.23;;;23.70;;
69047;SDS011;56119;50.118;8.642;2022-11-20T07:37:54;45.77;;;22.47;;
69047;SDS011;56119;50.118;8.642;2022-11-20T07:40:20;48.25;;;23.92;;
69047;SDS011;56119;50.118;8.642;2022-11-20T07:42:50;42.83;;;22.13;;
69047;SDS011;56119;50.118;8.642;2022-11-20T07:45:17;46.17;;;23.38;;
69047;SDS011;56119;50.118;8.642;2022-11-20T07:47:43;46.70;;;23.42;;
69047;SDS011;56119;50.118;8.642;2022-11-20T07:50:09;44.15;;;23.23;;
69047;SDS011;56119;50.118;8.642;2022-11-20T07:52:35;43.75;;;21.70;;
69047;SDS011;56119;50.118;8.642;2022-11-20T07:55:01;40.70;;;21.33;;
69047;SDS011;56119;50.118;8.642;2022-11-20T07:57:27;45.53;;;22.35;;
69047;SDS011;56119;50.118;8.642;2022-11-20T07:59:53;46.45;;;23.48;;
69047;SDS011;56119;50.118;8.642;2022-11-20T08:02:19;42.67;;;22.52;;
69047;SDS011;56119;50.118;8.642;2022-11-20T08:04:45;48.17;;;23.98;;
69047;SDS011;56119;50.118;8.642;2022-11-20T08:07:11;43.10;;;22.98;;
69047;SDS011;56119;50.118;8.642;2022-11-20T08:09:37;44.90;;;23.85;;
69047;SDS011;56119;50.118;8.642;2022-11-20T08:12:03;48.03;;;25.42;;
69047;SDS011;56119;50.118;8.642;2022-11-20T08:14:48;44.65;;;24.33;;
69047;SDS011;56119;50.118;8.642;2022-11-20T08:17:14;50.92;;;25.55;;
69047;SDS011;56119;50.118;8.642;2022-11-20T08:19:40;51.90;;;25.80;;
69047;SDS011;56119;50.118;8.642;2022-11-20T08:22:06;52.75;;;25.25;;
69047;SDS011;56119;50.118;8.642;2022-11-20T08:24:32;44.35;;;23.08;;
69047;SDS011;56119;50.118;8.642;2022-11-20T08:26:58;48.97;;;23.95;;
69047;SDS011;56119;50.118;8.642;2022-11-20T08:29:24;50.47;;;24.17;;
69047;SDS011;56119;50.118;8.642;2022-11-20T08:31:50;49.47;;;24.83;;
69047;SDS011;56119;50.118;8.642;2022-11-20T08:34:16;47.40;;;23.67;;
69047;SDS011;56119;50.118;8.642;2022-11-20T08:36:42;45.38;;;23.45;;
69047;SDS011;56119;50.118;8.642;2022-11-20T08:39:11;47.45;;;24.67;;
69047;SDS011;56119;50.118;8.642;2022-11-20T08:41:37;46.72;;;25.20;;
69047;SDS011;56119;50.118;8.642;2022-11-20T08:44:03;50.50;;;24.83;;
69047;SDS011;56119;50.118;8.642;2022-11-20T08:46:39;51.00;;;24.95;;
69047;SDS011;56119;50.118;8.642;2022-11-20T08:49:06;51.88;;;24.58;;
69047;SDS011;56119;50.118;8.642;2022-11-20T08:51:33;47.08;;;24.55;;
69047;SDS011;56119;50.118;8.642;2022-11-20T08:53:59;48.58;;;25.00;;
69047;SDS011;56119;50.118;8.642;2022-11-20T08:56:25;48.67;;;24.35;;
69047;SDS011;56119;50.118;8.642;2022-11-20T08:58:51;50.03;;;25.98;;
69047;SDS011;56119;50.118;8.642;2022-11-20T09:01:18;47.35;;;25.27;;
69047;SDS011;56119;50.118;8.642;2022-11-20T09:03:45;56.25;;;25.15;;
69047;SDS011;56119;50.118;8.642;2022-11-20T09:06:11;49.92;;;25.80;;
69047;SDS011;56119;50.118;8.642;2022-11-20T09:08:37;47.75;;;24.75;;
69047;SDS011;56119;50.118;8.642;2022-11-20T09:11:03;48.03;;;23.83;;
69047;SDS011;56119;50.118;8.642;2022-11-20T09:13:30;44.97;;;24.13;;
69047;SDS011;56119;50.118;8.642;2022-11-20T09:15:56;41.72;;;22.88;;
69047;SDS011;56119;50.118;8.642;2022-11-20T09:18:23;41.45;;;22.20;;
69047;SDS011;56119;50.118;8.642;2022-11-20T09:20:49;40.70;;;23.75;;
69047;SDS011;56119;50.118;8.642;2022-11-20T09:23:15;41.80;;;23.23;;
69047;SDS011;56119;50.118;8.642;2022-11-20T09:25:42;45.00;;;23.67;;
69047;SDS011;56119;50.118;8.642;2022-11-20T09:28:08;45.08;;;23.65;;
69047;SDS011;56119;50.118;8.642;2022-11-20T09:30:34;41.72;;;22.95;;
69047;SDS011;56119;50.118;8.642;2022-11-20T09:33:00;42.47;;;23.90;;
69047;SDS011;56119;50.118;8.642;2022-11-20T09:35:26;44.05;;;24.33;;
69047;SDS011;56119;50.118;8.642;2022-11-20T09:37:52;42.67;;;23.38;;
69047;SDS011;56119;50.118;8.642;2022-11-20T09:40:22;42.80;;;23.58;;
69047;SDS011;56119;50.118;8.642;2022-11-20T09:51:10;40.22;;;22.38;;
69047;SDS011;56119;50.118;8.642;2022-11-20T09:54:33;41.08;;;24.00;;
69047;SDS011;56119;50.118;8.642;2022-11-20T09:57:21;42.28;;;24.38;;
69047;SDS011;56119;50.118;8.642;2022-11-20T09:59:53;45.03;;;24.23;;
69047;SDS011;56119;50.118;8.642;2022-11-20T10:10:15;41.65;;;23.85;;
69047;SDS011;56119;50.118;8.642;2022-11-20T10:23:27;39.88;;;23.67;;
69047;SDS011;56119;50.118;8.642;2022-11-20T10:25:52;41.90;;;24.27;;
69047;SDS011;56119;50.118;8.642;2022-11-20T10:28:24;39.58;;;23.95;;
69047;SDS011;56119;50.118;8.642;2022-11-20T10:31:03;40.13;;;23.83;;
69047;SDS011;56119;50.118;8.642;2022-11-20T10:33:31;38.65;;;21.60;;
69047;SDS011;56119;50.118;8.642;2022-11-20T10:38:43;37.65;;;21.90;;
69047;SDS011;56119;50.118;8.642;2022-11-20T10:41:23;41.42;;;22.90;;
69047;SDS011;56119;50.118;8.642;2022-11-20T10:43:52;40.10;;;23.23;;
69047;SDS011;56119;50.118;8.642;2022-11-20T10:46:20;43.83;;;24.35;;
69047;SDS011;56119;50.118;8.642;2022-11-20T10:48:47;38.55;;;23.63;;
69047;SDS011;56119;50.118;8.642;2022-11-20T10:53:56;41.47;;;24.00;;
69047;SDS011;56119;50.118;8.642;2022-11-20T10:56:31;43.17;;;23.98;;
69047;SDS011;56119;50.118;8.642;2022-11-20T10:59:10;41.47;;;23.40;;
69047;SDS011;56119;50.118;8.642;2022-11-20T11:01:41;43.35;;;23.48;;
69047;SDS011;56119;50.118;8.642;2022-11-20T11:04:30;46.15;;;24.52;;
69047;SDS011;56119;50.118;8.642;2022-11-20T11:07:05;40.25;;;23.65;;
69047;SDS011;56119;50.118;8.642;2022-11-20T11:09:33;43.33;;;23.98;;
69047;SDS011;56119;50.118;8.642;2022-11-20T11:12:00;47.72;;;25.27;;
69047;SDS011;56119;50.118;8.642;2022-11-20T11:14:26;48.45;;;25.48;;
69047;SDS011;56119;50.118;8.642;2022-11-20T11:16:53;47.80;;;25.83;;
69047;SDS011;56119;50.118;8.642;2022-11-20T11:19:19;46.63;;;25.63;;
69047;SDS011;56119;50.118;8.642;2022-11-20T11:21:52;46.55;;;25.25;;
69047;SDS011;56119;50.118;8.642;2022-11-20T11:24:23;48.05;;;26.80;;
69047;SDS011;56119;50.118;8.642;2022-11-20T11:26:54;45.97;;;24.10;;
69047;SDS011;56119;50.118;8.642;2022-11-20T11:29:20;46.05;;;25.75;;
69047;SDS011;56119;50.118;8.642;2022-11-20T11:31:46;48.75;;;26.65;;
69047;SDS011;56119;50.118;8.642;2022-11-20T11:34:13;46.05;;;24.73;;
69047;SDS011;56119;50.118;8.642;2022-11-20T11:36:40;46.65;;;25.33;;
69047;SDS011;56119;50.118;8.642;2022-11-20T11:39:14;43.10;;;23.65;;
69047;SDS011;56119;50.118;8.642;2022-11-20T11:41:41;41.60;;;24.52;;
69047;SDS011;56119;50.118;8.642;2022-11-20T11:44:17;46.40;;;24.20;;
69047;SDS011;56119;50.118;8.642;2022-11-20T11:47:04;43.47;;;23.40;;
69047;SDS011;56119;50.118;8.642;2022-11-20T11:49:31;39.30;;;22.90;;
69047;SDS011;56119;50.118;8.642;2022-11-20T11:52:01;39.60;;;23.63;;
69047;SDS011;56119;50.118;8.642;2022-11-20T11:54:31;41.05;;;23.38;;
69047;SDS011;56119;50.118;8.642;2022-11-20T11:57:00;41.28;;;23.38;;
69047;SDS011;56119;50.118;8.642;2022-11-20T11:59:28;45.13;;;25.20;;
69047;SDS011;56119;50.118;8.642;2022-11-20T12:02:00;46.38;;;25.88;;
69047;SDS011;56119;50.118;8.642;2022-11-20T12:06:58;42.13;;;24.67;;
69047;SDS011;56119;50.118;8.642;2022-11-20T12:09:28;42.45;;;22.13;;
69047;SDS011;56119;50.118;8.642;2022-11-20T12:12:12;41.08;;;22.67;;
69047;SDS011;56119;50.118;8.642;2022-11-20T12:14:39;39.10;;;23.67;;
69047;SDS011;56119;50.118;8.642;2022-11-20T12:17:07;37.20;;;21.35;;
69047;SDS011;56119;50.118;8.642;2022-11-20T12:19:35;37.25;;;21.45;;
69047;SDS011;56119;50.118;8.642;2022-11-20T12:24:52;33.70;;;20.50;;
69047;SDS011;56119;50.118;8.642;2022-11-20T12:30:03;34.65;;;21.77;;
69047;SDS011;56119;50.118;8.642;2022-11-20T12:35:08;35.10;;;19.80;;
69047;SDS011;56119;50.118;8.642;2022-11-20T12:40:12;32.63;;;19.63;;
69047;SDS011;56119;50.118;8.642;2022-11-20T12:42:46;35.40;;;20.75;;
69047;SDS011;56119;50.118;8.642;2022-11-20T12:58:19;36.38;;;21.95;;
69047;SDS011;56119;50.118;8.642;2022-11-20T13:00:50;37.30;;;21.52;;
69047;SDS011;56119;50.118;8.642;2022-11-20T13:03:24;38.10;;;21.80;;
69047;SDS011;56119;50.118;8.642;2022-11-20T13:08:41;41.50;;;23.85;;
69047;SDS011;56119;50.118;8.642;2022-11-20T13:11:17;40.47;;;24.55;;
69047;SDS011;56119;50.118;8.642;2022-11-20T13:19:14;36.72;;;22.58;;
69047;SDS011;56119;50.118;8.642;2022-11-20T13:21:42;45.33;;;25.40;;
69047;SDS011;56119;50.118;8.642;2022-11-20T13:26:38;40.05;;;23.13;;
69047;SDS011;56119;50.118;8.642;2022-11-20T13:29:11;37.78;;;22.60;;
69047;SDS011;56119;50.118;8.642;2022-11-20T13:31:38;41.33;;;24.05;;
69047;SDS011;56119;50.118;8.642;2022-11-20T13:34:07;37.72;;;23.13;;
69047;SDS011;56119;50.118;8.642;2022-11-20T13:36:37;38.67;;;23.17;;
69047;SDS011;56119;50.118;8.642;2022-11-20T13:39:23;36.67;;;22.65;;
69047;SDS011;56119;50.118;8.642;2022-11-20T13:41:53;37.55;;;22.67;;
69047;SDS011;56119;50.118;8.642;2022-11-20T13:44:38;37.15;;;22.63;;
69047;SDS011;56119;50.118;8.642;2022-11-20T13:47:18;34.53;;;20.35;;
69047;SDS011;56119;50.118;8.642;2022-11-20T13:49:45;38.00;;;21.60;;
69047;SDS011;56119;50.118;8.642;2022-11-20T13:52:32;37.42;;;22.30;;
69047;SDS011;56119;50.118;8.642;2022-11-20T13:55:04;35.22;;;21.83;;
69047;SDS011;56119;50.118;8.642;2022-11-20T14:00:15;36.45;;;22.15;;
69047;SDS011;56119;50.118;8.642;2022-11-20T14:02:41;35.92;;;21.60;;
69047;SDS011;56119;50.118;8.642;2022-11-20T14:05:15;34.25;;;20.27;;
69047;SDS011;56119;50.118;8.642;2022-11-20T14:07:42;32.75;;;20.27;;
69047;SDS011;56119;50.118;8.642;2022-11-20T14:10:18;32.72;;;20.20;;
69047;SDS011;56119;50.118;8.642;2022-11-20T14:12:44;30.83;;;19.63;;
69047;SDS011;56119;50.118;8.642;2022-11-20T14:15:24;32.50;;;19.85;;
69047;SDS011;56119;50.118;8.642;2022-11-20T14:17:50;33.38;;;20.52;;
69047;SDS011;56119;50.118;8.642;2022-11-20T14:20:16;29.38;;;18.17;;
69047;SDS011;56119;50.118;8.642;2022-11-20T14:22:48;32.67;;;19.52;;
69047;SDS011;56119;50.118;8.642;2022-11-20T14:27:41;30.65;;;18.33;;
69047;SDS011;56119;50.118;8.642;2022-11-20T14:30:14;31.92;;;19.75;;
69047;SDS011;56119;50.118;8.642;2022-11-20T14:32:41;31.17;;;18.77;;
69047;SDS011;56119;50.118;8.642;2022-11-20T14:35:08;33.10;;;19.02;;
69047;SDS011;56119;50.118;8.642;2022-11-20T14:37:36;33.22;;;19.25;;
69047;SDS011;56119;50.118;8.642;2022-11-20T14:40:04;28.15;;;17.73;;
69047;SDS011;56119;50.118;8.642;2022-11-20T14:42:31;30.05;;;17.80;;
69047;SDS011;56119;50.118;8.642;2022-11-20T14:44:58;30.77;;;18.75;;
69047;SDS011;56119;50.118;8.642;2022-11-20T14:47:26;33.97;;;20.58;;
69047;SDS011;56119;50.118;8.642;2022-11-20T14:49:53;28.63;;;17.48;;
69047;SDS011;56119;50.118;8.642;2022-11-20T14:52:21;30.63;;;18.15;;
69047;SDS011;56119;50.118;8.642;2022-11-20T14:54:54;28.58;;;18.42;;
69047;SDS011;56119;50.118;8.642;2022-11-20T14:57:25;28.95;;;18.08;;
69047;SDS011;56119;50.118;8.642;2022-11-20T15:00:02;30.42;;;18.33;;
69047;SDS011;56119;50.118;8.642;2022-11-20T15:02:29;32.67;;;19.02;;
69047;SDS011;56119;50.118;8.642;2022-11-20T15:04:59;29.65;;;18.40;;
69047;SDS011;56119;50.118;8.642;2022-11-20T15:07:31;28.83;;;18.73;;
69047;SDS011;56119;50.118;8.642;2022-11-20T15:10:04;31.33;;;18.27;;
69047;SDS011;56119;50.118;8.642;2022-11-20T15:12:32;30.25;;;18.23;;
69047;SDS011;56119;50.118;8.642;2022-11-20T15:14:59;28.98;;;18.08;;
69047;SDS011;56119;50.118;8.642;2022-11-20T15:17:26;28.55;;;17.27;;
69047;SDS011;56119;50.118;8.642;2022-11-20T15:19:52;28.85;;;17.02;;
69047;SDS011;56119;50.118;8.642;2022-11-20T15:22:18;26.02;;;16.58;;
69047;SDS011;56119;50.118;8.642;2022-11-20T15:24:44;29.35;;;17.25;;
69047;SDS011;56119;50.118;8.642;2022-11-20T15:27:10;28.27;;;17.63;;
69047;SDS011;56119;50.118;8.642;2022-11-20T15:29:37;25.38;;;16.63;;
69047;SDS011;56119;50.118;8.642;2022-11-20T15:32:03;29.45;;;17.00;;
69047;SDS011;56119;50.118;8.642;2022-11-20T15:34:29;28.52;;;17.77;;
69047;SDS011;56119;50.118;8.642;2022-11-20T15:36:55;28.77;;;17.60;;
69047;SDS011;56119;50.118;8.642;2022-11-20T15:39:21;27.50;;;18.05;;
69047;SDS011;56119;50.118;8.642;2022-11-20T15:41:47;29.08;;;18.17;;